Time;durP1;ratioP1;P1;durP2;ratioP2;P2;SDS_P1;SDS_P2;PMS_P1;PMS_P2;Temp;Humidity;BMP_temperature;BMP_pressure;BME280_temperature;BME280_humidity;BME280_pressure;Samples;Min_cycle;Max_cycle;Signal;HPM_P1;HPM_P2
2022/03/08 00:00:43;;;;;;;12.88;8.75;;;0.10;59.10;;;;;;5090681;28;20424;-77
2022/03/08 00:03:09;;;;;;;13.90;10.00;;;0.10;59.30;;;;;;5089854;28;20648;-76
2022/03/08 00:05:35;;;;;;;14.10;10.37;;;0.00;59.70;;;;;;5090939;28;20428;-76
2022/03/08 00:08:01;;;;;;;13.77;9.90;;;0.00;59.50;;;;;;5072711;28;20625;-77
2022/03/08 00:10:27;;;;;;;12.95;9.40;;;0.00;59.70;;;;;;5088298;28;20487;-77
2022/03/08 00:12:53;;;;;;;13.15;9.80;;;0.00;59.40;;;;;;5088281;28;20581;-76
2022/03/08 00:15:25;;;;;;;10.07;8.50;;;0.00;59.30;;;;;;5089753;28;20995;-78
2022/03/08 00:17:53;;;;;;;13.35;9.65;;;0.00;59.10;;;;;;5089900;28;20184;-76
2022/03/08 00:20:19;;;;;;;14.30;8.77;;;0.10;59.40;;;;;;5088352;28;20274;-77
2022/03/08 00:22:45;;;;;;;14.32;9.93;;;0.10;59.10;;;;;;5088133;28;20606;-77
2022/03/08 00:25:12;;;;;;;12.17;8.60;;;0.00;58.60;;;;;;5071430;28;20182;-78
2022/03/08 00:27:42;;;;;;;10.63;8.82;;;0.00;58.50;;;;;;5089733;28;20509;-77
2022/03/08 00:30:08;;;;;;;13.07;9.10;;;0.00;57.90;;;;;;5088788;28;20587;-77
2022/03/08 00:32:34;;;;;;;12.50;7.63;;;0.10;58.00;;;;;;5088644;28;20198;-77
2022/03/08 00:35:00;;;;;;;12.93;8.00;;;0.10;57.80;;;;;;5089047;28;20177;-77
2022/03/08 00:37:25;;;;;;;9.50;8.20;;;0.10;57.60;;;;;;5088928;28;20183;-78
2022/03/08 00:39:51;;;;;;;12.70;8.43;;;0.10;57.30;;;;;;5090278;28;20656;-78
2022/03/08 00:42:17;;;;;;;10.73;8.33;;;0.20;57.60;;;;;;5088821;28;20751;-77
2022/03/08 00:44:44;;;;;;;12.80;8.97;;;0.10;57.90;;;;;;5090701;28;20179;-78
2022/03/08 00:47:11;;;;;;;7.43;6.60;;;0.10;57.80;;;;;;5090138;28;20243;-79
2022/03/08 00:49:38;;;;;;;8.85;7.95;;;0.10;57.70;;;;;;5089729;28;20688;-77
2022/03/08 00:52:05;;;;;;;8.80;7.00;;;0.10;57.20;;;;;;5088418;28;20207;-77
2022/03/08 00:54:31;;;;;;;9.75;6.70;;;0.10;57.20;;;;;;5088468;28;20663;-77
2022/03/08 00:56:57;;;;;;;9.10;6.97;;;0.10;58.60;;;;;;5088214;28;20315;-76
2022/03/08 00:59:23;;;;;;;11.43;8.23;;;0.00;57.90;;;;;;5089922;28;20270;-73
2022/03/08 01:01:49;;;;;;;10.30;7.80;;;0.10;57.70;;;;;;5089261;28;20235;-77
2022/03/08 01:04:15;;;;;;;8.73;7.50;;;0.10;57.50;;;;;;5089368;28;20223;-77
2022/03/08 01:06:41;;;;;;;9.60;6.90;;;0.30;57.20;;;;;;5071109;28;20426;-77
2022/03/08 01:09:07;;;;;;;7.77;6.97;;;0.30;57.00;;;;;;5091475;28;20211;-76
2022/03/08 01:11:34;;;;;;;9.17;7.30;;;0.20;57.30;;;;;;5093060;28;20536;-77
2022/03/08 01:13:59;;;;;;;11.40;7.55;;;0.20;57.00;;;;;;5091625;28;20237;-76
2022/03/08 01:16:25;;;;;;;8.63;6.70;;;0.10;58.00;;;;;;5093027;28;21001;-76
2022/03/08 01:18:51;;;;;;;9.60;7.27;;;0.10;58.00;;;;;;5092694;28;20180;-76
2022/03/08 01:21:17;;;;;;;14.13;7.57;;;0.10;58.30;;;;;;5093054;28;20287;-77
2022/03/08 01:23:43;;;;;;;9.20;6.70;;;0.10;57.30;;;;;;5092990;28;20193;-77
2022/03/08 01:26:09;;;;;;;8.83;6.47;;;0.10;57.30;;;;;;5092937;28;20191;-77
2022/03/08 01:28:35;;;;;;;7.65;6.70;;;0.10;56.90;;;;;;5091405;28;20199;-77
2022/03/08 01:31:01;;;;;;;10.50;6.70;;;0.10;57.00;;;;;;5091365;28;20189;-78
2022/03/08 01:33:27;;;;;;;9.80;7.15;;;0.10;57.40;;;;;;5091285;28;20183;-78
2022/03/08 01:35:54;;;;;;;10.47;6.97;;;0.10;57.80;;;;;;5092606;28;20178;-78
2022/03/08 01:38:20;;;;;;;7.68;6.53;;;0.00;57.60;;;;;;5092664;28;20620;-79
2022/03/08 01:40:46;;;;;;;8.20;6.53;;;0.00;56.70;;;;;;5090639;28;20183;-78
2022/03/08 01:43:11;;;;;;;7.77;6.63;;;0.00;57.60;;;;;;5092338;28;20671;-77
2022/03/08 01:45:37;;;;;;;6.73;6.00;;;0.00;58.00;;;;;;5090835;28;20702;-78
2022/03/08 01:48:03;;;;;;;8.33;6.50;;;0.00;57.90;;;;;;5090953;28;20267;-78
2022/03/08 01:50:28;;;;;;;9.07;6.37;;;-0.10;58.40;;;;;;5090769;28;20177;-77
2022/03/08 01:52:55;;;;;;;9.00;7.00;;;-0.20;59.20;;;;;;5090368;28;20200;-78
2022/03/08 01:55:21;;;;;;;7.38;6.55;;;-0.20;59.50;;;;;;5091935;28;20182;-78
2022/03/08 01:57:49;;;;;;;8.23;6.82;;;-0.30;59.70;;;;;;5091949;28;20203;-78
2022/03/08 02:00:17;;;;;;;12.52;6.75;;;-0.30;60.60;;;;;;5092014;28;20183;-78
2022/03/08 02:02:44;;;;;;;8.57;6.60;;;-0.40;60.90;;;;;;5091967;28;20725;-78
2022/03/08 02:05:11;;;;;;;6.95;6.25;;;-0.40;60.50;;;;;;5092110;28;20179;-77
2022/03/08 02:07:37;;;;;;;6.28;5.60;;;-0.50;60.40;;;;;;5091494;28;20231;-77
2022/03/08 02:10:04;;;;;;;6.40;5.50;;;-0.40;59.40;;;;;;5089945;28;20222;-77
2022/03/08 02:12:30;;;;;;;6.55;5.85;;;-0.40;58.70;;;;;;5091408;28;20312;-77
2022/03/08 02:14:56;;;;;;;7.83;5.93;;;-0.40;58.70;;;;;;5073216;28;20176;-77
2022/03/08 02:17:21;;;;;;;10.50;6.07;;;-0.40;58.90;;;;;;5089952;28;20183;-76
2022/03/08 02:19:47;;;;;;;7.27;6.00;;;-0.30;58.20;;;;;;5093500;28;20713;-77
2022/03/08 02:22:13;;;;;;;6.07;5.33;;;-0.30;57.80;;;;;;5097492;28;20213;-77
2022/03/08 02:24:38;;;;;;;6.30;4.67;;;-0.30;57.40;;;;;;5091809;28;20655;-77
2022/03/08 02:27:05;;;;;;;6.40;5.17;;;-0.20;57.40;;;;;;5090364;28;20236;-78
2022/03/08 02:29:31;;;;;;;6.70;5.28;;;-0.20;56.90;;;;;;5073208;28;20214;-78
2022/03/08 02:31:57;;;;;;;10.27;6.20;;;-0.20;57.40;;;;;;5091449;28;20282;-78
2022/03/08 02:34:22;;;;;;;5.50;4.80;;;-0.30;57.80;;;;;;5090380;28;20179;-78
2022/03/08 02:37:08;;;;;;;5.93;4.73;;;-0.30;57.00;;;;;;5090002;28;20524;-78
2022/03/08 02:39:38;;;;;;;7.85;5.35;;;-0.20;57.00;;;;;;5090065;28;20667;-77
2022/03/08 02:42:04;;;;;;;7.35;5.05;;;-0.20;56.90;;;;;;5073712;28;20741;-77
2022/03/08 02:44:30;;;;;;;14.18;4.90;;;-0.10;56.70;;;;;;5091334;28;20605;-79
2022/03/08 02:46:56;;;;;;;9.23;4.97;;;-0.10;57.30;;;;;;5089822;28;20234;-78
2022/03/08 02:49:22;;;;;;;7.22;5.60;;;-0.20;57.50;;;;;;5091112;28;20211;-77
2022/03/08 02:51:48;;;;;;;8.20;5.40;;;-0.30;58.20;;;;;;5089792;28;20214;-78
2022/03/08 02:54:13;;;;;;;5.53;4.93;;;-0.30;58.30;;;;;;5089523;28;20282;-76
2022/03/08 02:56:39;;;;;;;8.60;4.73;;;-0.30;58.80;;;;;;5089694;28;20412;-77
2022/03/08 02:59:05;;;;;;;4.90;3.77;;;-0.30;58.60;;;;;;5090906;28;20655;-78
2022/03/08 03:01:30;;;;;;;6.33;4.50;;;-0.10;57.50;;;;;;5089363;28;20203;-77
2022/03/08 03:03:56;;;;;;;5.70;4.67;;;0.00;57.50;;;;;;5090793;28;20178;-77
2022/03/08 03:06:22;;;;;;;5.75;4.20;;;0.00;57.50;;;;;;5089150;28;20194;-78
2022/03/08 03:08:48;;;;;;;5.23;3.97;;;-0.10;58.30;;;;;;5090220;28;20215;-77
2022/03/08 03:11:13;;;;;;;4.30;3.77;;;-0.20;58.80;;;;;;5088946;28;20287;-79
2022/03/08 03:13:39;;;;;;;4.30;4.00;;;-0.20;59.30;;;;;;5090261;28;20183;-77
2022/03/08 03:16:05;;;;;;;4.40;4.00;;;-0.10;58.80;;;;;;5090148;28;20653;-77
2022/03/08 03:18:30;;;;;;;4.93;3.70;;;-0.10;58.70;;;;;;5089030;28;20661;-79
2022/03/08 03:20:56;;;;;;;4.53;4.20;;;-0.10;58.70;;;;;;5088433;28;20975;-78
2022/03/08 03:23:22;;;;;;;5.10;3.77;;;0.00;58.80;;;;;;5089978;28;20596;-76
2022/03/08 03:25:47;;;;;;;3.70;3.40;;;-0.10;59.20;;;;;;5089626;28;20191;-76
2022/03/08 03:28:13;;;;;;;4.50;3.93;;;-0.10;58.90;;;;;;5088364;28;20210;-77
2022/03/08 03:30:38;;;;;;;3.60;3.30;;;-0.10;58.80;;;;;;5088231;28;20184;-76
2022/03/08 03:33:04;;;;;;;4.43;3.43;;;0.00;58.30;;;;;;5071598;28;20207;-77
2022/03/08 03:35:31;;;;;;;6.13;4.10;;;0.00;58.70;;;;;;5071553;28;20276;-76
2022/03/08 03:37:57;;;;;;;6.65;3.88;;;-0.10;59.00;;;;;;5089582;28;20178;-77
2022/03/08 03:40:23;;;;;;;7.00;4.37;;;-0.10;58.40;;;;;;5088255;28;20683;-77
2022/03/08 03:42:48;;;;;;;5.60;4.43;;;0.00;58.20;;;;;;5088036;28;20325;-78
2022/03/08 03:45:14;;;;;;;4.83;4.23;;;0.10;58.10;;;;;;5088029;28;20190;-78
2022/03/08 03:47:40;;;;;;;10.47;4.50;;;0.00;58.20;;;;;;5088208;28;20180;-75
2022/03/08 03:50:08;;;;;;;6.10;5.07;;;-0.10;58.20;;;;;;5089230;28;20207;-76
2022/03/08 03:52:33;;;;;;;4.60;4.00;;;-0.10;58.10;;;;;;5089465;28;20251;-76
2022/03/08 03:54:59;;;;;;;4.97;4.47;;;0.00;58.70;;;;;;5089715;28;20604;-76
2022/03/08 03:57:25;;;;;;;4.83;4.40;;;-0.10;58.50;;;;;;5089371;28;20428;-77
2022/03/08 03:59:51;;;;;;;5.10;4.60;;;-0.10;58.30;;;;;;5089280;28;20258;-76
2022/03/08 04:02:16;;;;;;;5.63;4.17;;;-0.10;58.40;;;;;;5088050;28;20237;-77
2022/03/08 04:04:42;;;;;;;4.30;3.87;;;-0.10;58.60;;;;;;5090042;28;20598;-75
2022/03/08 04:07:07;;;;;;;4.30;3.90;;;-0.20;59.10;;;;;;5089506;28;20194;-74
2022/03/08 04:09:33;;;;;;;6.43;4.47;;;-0.20;59.50;;;;;;5089314;28;20226;-77
2022/03/08 04:11:59;;;;;;;5.23;4.73;;;-0.20;60.10;;;;;;5088966;28;20818;-75
2022/03/08 04:14:25;;;;;;;5.17;4.53;;;-0.20;60.30;;;;;;5089198;28;20181;-76
2022/03/08 04:16:52;;;;;;;5.68;4.40;;;-0.20;60.30;;;;;;5089193;28;20175;-75
2022/03/08 04:19:18;;;;;;;5.53;4.72;;;-0.20;61.00;;;;;;5070979;28;20198;-75
2022/03/08 04:21:43;;;;;;;5.43;4.83;;;-0.20;61.00;;;;;;5088828;28;20208;-75
2022/03/08 04:24:09;;;;;;;4.40;4.00;;;-0.10;61.50;;;;;;5088921;28;20629;-76
2022/03/08 04:26:35;;;;;;;6.07;4.50;;;-0.10;61.90;;;;;;5089453;28;20182;-75
2022/03/08 04:29:00;;;;;;;5.00;4.53;;;0.00;62.10;;;;;;5089307;28;20208;-76
2022/03/08 04:31:26;;;;;;;6.43;4.40;;;0.00;62.50;;;;;;5089052;28;20202;-76
2022/03/08 04:33:52;;;;;;;6.17;4.80;;;0.00;62.70;;;;;;5089032;28;20181;-77
2022/03/08 04:36:18;;;;;;;4.45;4.05;;;-0.10;63.20;;;;;;5089448;28;20206;-74
2022/03/08 04:38:44;;;;;;;4.87;4.20;;;-0.10;64.80;;;;;;5089660;28;20213;-76
2022/03/08 04:41:09;;;;;;;8.23;4.23;;;-0.10;66.10;;;;;;5070472;28;20248;-74
2022/03/08 04:43:35;;;;;;;5.60;4.37;;;-0.20;66.20;;;;;;5091851;28;20182;-74
2022/03/08 04:46:01;;;;;;;5.40;4.87;;;-0.20;67.40;;;;;;5093074;28;20182;-74
2022/03/08 04:48:27;;;;;;;4.82;4.40;;;-0.20;68.70;;;;;;5092856;28;20198;-74
2022/03/08 04:50:52;;;;;;;7.03;5.50;;;-0.20;69.70;;;;;;5092929;28;20211;-74
2022/03/08 04:53:18;;;;;;;8.77;5.07;;;-0.20;71.00;;;;;;5091404;28;20426;-75
2022/03/08 04:55:44;;;;;;;4.80;4.40;;;-0.20;71.60;;;;;;5093007;28;20200;-75
2022/03/08 04:58:09;;;;;;;8.20;4.90;;;-0.20;72.20;;;;;;5092210;28;20609;-74
2022/03/08 05:00:35;;;;;;;6.20;5.30;;;-0.30;73.00;;;;;;5093452;28;20247;-77
2022/03/08 05:03:01;;;;;;;7.43;5.50;;;-0.30;74.00;;;;;;5093068;28;20206;-76
2022/03/08 05:05:29;;;;;;;8.57;5.00;;;-0.20;75.20;;;;;;5092065;28;20191;-76
2022/03/08 05:07:55;;;;;;;5.57;5.00;;;-0.20;76.10;;;;;;5093068;28;20186;-75
2022/03/08 05:10:20;;;;;;;7.07;5.10;;;-0.20;76.80;;;;;;5093140;28;20193;-76
2022/03/08 05:12:46;;;;;;;7.30;5.37;;;-0.20;77.10;;;;;;5091772;28;20206;-76
2022/03/08 05:15:12;;;;;;;5.93;4.60;;;-0.30;77.50;;;;;;5091706;28;20178;-75
2022/03/08 05:17:38;;;;;;;5.50;4.77;;;-0.30;78.00;;;;;;5092999;28;20175;-75
2022/03/08 05:20:05;;;;;;;5.22;4.72;;;-0.20;78.90;;;;;;5092810;28;20284;-74
2022/03/08 05:22:31;;;;;;;6.40;5.30;;;-0.20;80.50;;;;;;5092511;28;21043;-75
2022/03/08 05:24:56;;;;;;;7.23;5.90;;;-0.20;80.20;;;;;;5090187;28;20282;-74
2022/03/08 05:27:22;;;;;;;7.60;5.07;;;-0.10;80.50;;;;;;5091808;28;20204;-75
2022/03/08 05:29:48;;;;;;;5.63;5.03;;;-0.20;81.30;;;;;;5072858;28;20210;-75
2022/03/08 05:32:13;;;;;;;7.00;5.50;;;-0.10;81.30;;;;;;5089375;28;20202;-75
2022/03/08 05:34:39;;;;;;;8.30;5.13;;;-0.20;80.20;;;;;;5090666;28;20190;-76
2022/03/08 05:37:05;;;;;;;5.63;5.03;;;-0.20;81.30;;;;;;5089431;28;20237;-74
2022/03/08 05:39:30;;;;;;;11.30;4.97;;;-0.10;81.20;;;;;;5091447;28;20795;-74
2022/03/08 05:41:56;;;;;;;8.03;6.00;;;-0.10;80.50;;;;;;5090501;28;20212;-74
2022/03/08 05:44:22;;;;;;;6.93;5.70;;;0.00;80.30;;;;;;5091089;28;20275;-73
2022/03/08 05:46:47;;;;;;;8.23;6.40;;;0.00;80.00;;;;;;5090641;28;20186;-77
2022/03/08 05:49:13;;;;;;;7.07;5.97;;;-0.20;80.00;;;;;;5090748;28;20676;-76
2022/03/08 05:51:39;;;;;;;5.87;4.97;;;-0.30;81.20;;;;;;5088653;28;20254;-76
2022/03/08 05:54:04;;;;;;;8.67;6.70;;;-0.20;80.60;;;;;;5089889;28;20278;-75
2022/03/08 05:56:30;;;;;;;6.87;5.73;;;-0.30;80.20;;;;;;5090319;28;20190;-76
2022/03/08 05:58:55;;;;;;;11.13;6.63;;;-0.30;80.30;;;;;;5090466;28;20612;-74
2022/03/08 06:01:21;;;;;;;14.07;6.70;;;-0.30;79.50;;;;;;5090234;28;20206;-74
2022/03/08 06:03:47;;;;;;;6.60;5.90;;;-0.30;79.70;;;;;;5090123;28;20632;-73
2022/03/08 06:06:12;;;;;;;9.33;5.37;;;-0.20;79.70;;;;;;5088816;28;20183;-74
2022/03/08 06:08:39;;;;;;;11.77;6.83;;;-0.40;79.30;;;;;;5088194;28;20629;-74
2022/03/08 06:11:05;;;;;;;6.05;5.45;;;-0.30;79.60;;;;;;5089973;28;20178;-73
2022/03/08 06:13:30;;;;;;;7.03;5.55;;;-0.40;79.30;;;;;;5088419;28;20175;-75
2022/03/08 06:15:56;;;;;;;7.17;5.90;;;-0.30;79.70;;;;;;5089848;28;20693;-75
2022/03/08 06:18:22;;;;;;;6.55;5.85;;;-0.30;79.40;;;;;;5090228;28;20591;-73
2022/03/08 06:20:48;;;;;;;8.03;5.50;;;-0.30;79.50;;;;;;5090096;28;20269;-73
2022/03/08 06:23:13;;;;;;;6.73;5.87;;;-0.20;79.90;;;;;;5088643;28;20251;-73
2022/03/08 06:25:39;;;;;;;6.27;5.67;;;-0.20;80.20;;;;;;5089780;28;20178;-73
2022/03/08 06:28:05;;;;;;;12.00;6.50;;;-0.20;80.10;;;;;;5089467;28;20235;-73
2022/03/08 06:30:31;;;;;;;8.20;6.47;;;-0.20;80.30;;;;;;5089595;28;20170;-73
2022/03/08 06:32:57;;;;;;;24.57;12.43;;;-0.20;80.90;;;;;;5089622;28;20199;-75
2022/03/08 06:35:22;;;;;;;5.50;5.00;;;0.00;80.90;;;;;;5089632;28;20507;-74
2022/03/08 06:37:48;;;;;;;7.00;6.10;;;0.50;79.10;;;;;;5089439;28;20561;-75
2022/03/08 06:40:14;;;;;;;7.03;6.23;;;1.30;77.60;;;;;;5089242;28;20263;-74
2022/03/08 06:42:39;;;;;;;10.30;6.40;;;1.90;73.80;;;;;;5089347;28;20851;-73
2022/03/08 06:45:06;;;;;;;7.77;6.67;;;2.20;70.50;;;;;;5087802;28;20199;-73
2022/03/08 06:47:32;;;;;;;12.70;7.57;;;2.70;68.30;;;;;;5088396;28;20718;-75
2022/03/08 06:49:57;;;;;;;7.80;6.40;;;3.00;67.00;;;;;;5087632;28;20564;-74
2022/03/08 06:52:23;;;;;;;8.07;6.73;;;3.10;65.50;;;;;;5087769;28;20208;-75
2022/03/08 06:54:49;;;;;;;11.93;6.20;;;3.30;65.90;;;;;;5089212;28;20653;-76
2022/03/08 06:57:15;;;;;;;9.67;6.00;;;3.00;64.20;;;;;;5089421;28;20190;-75
2022/03/08 06:59:40;;;;;;;7.70;6.90;;;3.50;64.40;;;;;;5089655;28;20191;-75
2022/03/08 07:02:06;;;;;;;14.77;7.73;;;3.60;64.00;;;;;;5089523;28;20242;-74
2022/03/08 07:04:32;;;;;;;9.47;7.20;;;4.30;63.30;;;;;;5087795;28;20193;-75
2022/03/08 07:06:58;;;;;;;7.40;6.60;;;4.50;61.10;;;;;;5087511;28;20670;-74
2022/03/08 07:09:24;;;;;;;10.40;6.83;;;4.40;60.50;;;;;;5089246;28;20284;-74
2022/03/08 07:11:50;;;;;;;8.33;7.43;;;4.60;60.70;;;;;;5087620;28;20527;-74
2022/03/08 07:14:17;;;;;;;9.03;6.87;;;4.80;59.40;;;;;;5089366;28;20418;-73
2022/03/08 07:16:43;;;;;;;20.13;7.40;;;5.00;59.30;;;;;;5089414;28;20423;-75
2022/03/08 07:19:09;;;;;;;8.00;7.20;;;4.80;59.30;;;;;;5087574;28;20515;-74
2022/03/08 07:21:35;;;;;;;9.70;7.17;;;4.60;59.50;;;;;;5089347;28;21143;-74
2022/03/08 07:24:01;;;;;;;9.20;7.43;;;4.80;59.80;;;;;;5088791;28;20659;-74
2022/03/08 07:26:26;;;;;;;10.80;6.90;;;4.90;59.70;;;;;;5089049;28;20659;-75
2022/03/08 07:28:52;;;;;;;10.53;7.00;;;4.30;59.00;;;;;;5088864;28;20214;-75
2022/03/08 07:31:18;;;;;;;12.10;8.00;;;3.70;60.40;;;;;;5088922;28;20252;-75
2022/03/08 07:33:44;;;;;;;8.00;6.50;;;3.40;61.90;;;;;;5087492;28;20190;-74
2022/03/08 07:36:10;;;;;;;9.70;7.00;;;3.20;63.50;;;;;;5087589;28;20430;-74
2022/03/08 07:38:36;;;;;;;8.20;7.20;;;3.30;63.80;;;;;;5088769;28;20192;-74
2022/03/08 07:41:03;;;;;;;10.70;7.30;;;3.50;64.80;;;;;;5088592;28;20514;-74
2022/03/08 07:43:29;;;;;;;11.83;7.60;;;3.70;64.80;;;;;;5088813;28;20433;-74
2022/03/08 07:45:54;;;;;;;11.20;7.63;;;3.70;63.90;;;;;;5088950;28;20423;-75
2022/03/08 07:48:20;;;;;;;7.77;6.80;;;4.00;63.00;;;;;;5088655;28;20470;-74
2022/03/08 07:50:46;;;;;;;7.00;6.20;;;3.90;62.20;;;;;;5087213;28;20190;-74
2022/03/08 07:53:11;;;;;;;9.83;7.40;;;3.90;61.20;;;;;;5088327;28;20202;-75
2022/03/08 07:55:37;;;;;;;8.50;7.00;;;3.80;61.60;;;;;;5088468;28;20182;-74
2022/03/08 07:58:04;;;;;;;11.20;8.67;;;3.90;62.40;;;;;;5088514;28;20218;-75
2022/03/08 08:00:32;;;;;;;9.40;7.30;;;3.50;62.40;;;;;;5087046;28;20657;-74
2022/03/08 08:02:59;;;;;;;9.73;6.80;;;3.90;63.10;;;;;;5088540;28;20567;-74
2022/03/08 08:05:25;;;;;;;10.10;6.75;;;3.70;62.20;;;;;;5088414;28;20396;-74
2022/03/08 08:07:51;;;;;;;7.40;6.60;;;3.30;62.20;;;;;;5086836;28;20185;-75
2022/03/08 08:10:16;;;;;;;8.50;6.93;;;3.60;62.20;;;;;;5088133;28;20557;-75
2022/03/08 08:12:42;;;;;;;8.90;6.23;;;3.60;63.00;;;;;;5086879;28;20206;-75
2022/03/08 08:15:08;;;;;;;7.33;6.60;;;3.90;61.60;;;;;;5087874;28;20258;-75
2022/03/08 08:17:34;;;;;;;8.82;7.38;;;4.40;62.10;;;;;;5085306;28;20196;-75
2022/03/08 08:20:00;;;;;;;7.97;6.10;;;4.60;60.10;;;;;;5087861;28;20649;-74
2022/03/08 08:22:25;;;;;;;7.90;6.60;;;4.50;58.90;;;;;;5087683;28;20200;-74
2022/03/08 08:24:51;;;;;;;9.53;5.70;;;4.30;58.80;;;;;;5087562;28;20267;-75
2022/03/08 08:27:17;;;;;;;8.40;6.60;;;4.30;59.70;;;;;;5087664;28;20967;-75
2022/03/08 08:29:43;;;;;;;8.97;6.20;;;5.10;59.60;;;;;;5088021;28;20271;-74
2022/03/08 08:32:08;;;;;;;8.30;6.37;;;5.00;56.90;;;;;;5088178;28;20949;-74
2022/03/08 08:34:34;;;;;;;8.37;6.20;;;4.60;56.90;;;;;;5088506;28;20173;-74
2022/03/08 08:37:00;;;;;;;6.93;6.30;;;4.80;58.10;;;;;;5086931;28;20182;-75
2022/03/08 08:39:26;;;;;;;11.53;7.13;;;5.30;58.00;;;;;;5088289;28;20413;-74
2022/03/08 08:41:52;;;;;;;8.10;7.30;;;5.60;56.60;;;;;;5088105;28;20206;-75
2022/03/08 08:44:19;;;;;;;12.60;6.50;;;6.70;56.40;;;;;;5088195;28;20182;-73
2022/03/08 08:46:45;;;;;;;7.47;6.37;;;6.90;53.50;;;;;;5086535;28;20191;-75
2022/03/08 08:49:11;;;;;;;7.63;6.20;;;6.70;52.20;;;;;;5088109;28;20957;-75
2022/03/08 08:51:36;;;;;;;10.10;7.07;;;7.10;52.70;;;;;;5086483;28;20451;-74
2022/03/08 08:54:02;;;;;;;8.13;5.90;;;7.20;51.20;;;;;;5086770;28;20198;-75
2022/03/08 08:56:28;;;;;;;7.70;6.40;;;7.60;50.70;;;;;;5087906;28;20183;-74
2022/03/08 08:58:54;;;;;;;13.80;6.40;;;7.10;49.10;;;;;;5086600;28;20182;-75
2022/03/08 09:01:19;;;;;;;9.30;5.87;;;6.60;50.20;;;;;;5087828;28;20496;-75
2022/03/08 09:03:45;;;;;;;9.17;7.10;;;6.40;50.90;;;;;;5088058;28;20240;-74
2022/03/08 09:06:11;;;;;;;10.20;6.23;;;7.20;50.50;;;;;;5086281;28;20251;-75
2022/03/08 09:08:36;;;;;;;8.30;5.93;;;7.20;50.10;;;;;;5086575;28;20198;-75
2022/03/08 09:11:05;;;;;;;6.50;5.90;;;7.70;50.40;;;;;;5087067;28;20186;-75
2022/03/08 09:13:31;;;;;;;5.87;5.20;;;7.60;49.70;;;;;;5087399;28;20185;-73
2022/03/08 09:15:57;;;;;;;6.60;5.60;;;7.10;48.30;;;;;;5085819;28;20423;-75
2022/03/08 09:18:22;;;;;;;6.80;4.60;;;7.00;49.30;;;;;;5087364;28;20719;-76
2022/03/08 09:20:49;;;;;;;7.70;5.50;;;6.60;48.70;;;;;;5068761;28;20428;-75
2022/03/08 09:23:15;;;;;;;7.83;5.63;;;7.60;49.50;;;;;;5090973;28;20407;-76
2022/03/08 09:25:41;;;;;;;7.03;5.30;;;7.00;48.00;;;;;;5088707;28;20444;-75
2022/03/08 09:28:06;;;;;;;8.23;5.67;;;7.40;48.70;;;;;;5087737;28;20424;-75
2022/03/08 09:30:35;;;;;;;8.70;5.80;;;7.40;47.10;;;;;;5090005;28;20226;-73
2022/03/08 09:33:01;;;;;;;8.67;6.07;;;7.80;47.60;;;;;;5090504;28;20333;-75
2022/03/08 09:35:28;;;;;;;7.67;4.67;;;7.50;46.30;;;;;;5090554;28;20435;-75
2022/03/08 09:37:54;;;;;;;6.90;5.73;;;7.60;46.40;;;;;;5090748;28;20920;-75
2022/03/08 09:40:21;;;;;;;6.60;5.20;;;6.90;45.20;;;;;;5090542;28;20548;-75
2022/03/08 09:42:49;;;;;;;7.13;4.93;;;7.20;45.60;;;;;;5090782;28;20447;-75
2022/03/08 09:45:15;;;;;;;6.43;5.27;;;6.70;45.20;;;;;;5090985;28;20432;-75
2022/03/08 09:47:41;;;;;;;6.27;5.50;;;7.00;45.30;;;;;;5090915;28;20999;-74
2022/03/08 09:50:08;;;;;;;7.83;5.37;;;7.40;45.90;;;;;;5090827;28;20568;-75
2022/03/08 09:52:36;;;;;;;6.87;5.70;;;7.50;45.20;;;;;;5090827;28;20486;-74
2022/03/08 09:55:03;;;;;;;8.97;6.10;;;8.20;44.60;;;;;;5090649;28;20433;-75
2022/03/08 09:57:29;;;;;;;6.50;5.77;;;8.20;44.00;;;;;;5088997;28;20444;-76
2022/03/08 09:59:54;;;;;;;9.87;5.90;;;8.70;43.60;;;;;;5090594;28;20854;-75
2022/03/08 10:02:22;;;;;;;7.80;6.03;;;8.40;43.00;;;;;;5088773;28;20675;-75
2022/03/08 10:05:04;;;;;;;7.20;5.60;;;8.90;43.30;;;;;;5088183;28;20186;-75
2022/03/08 10:07:30;;;;;;;9.97;5.93;;;9.40;41.90;;;;;;5089771;28;20412;-74
2022/03/08 10:09:59;;;;;;;7.23;5.97;;;8.70;40.80;;;;;;5088212;28;20603;-75
2022/03/08 10:12:26;;;;;;;7.60;6.90;;;10.20;41.40;;;;;;5089548;28;20440;-75
2022/03/08 10:14:52;;;;;;;11.80;6.57;;;10.50;40.70;;;;;;5088216;28;20508;-74
2022/03/08 10:17:38;;;;;;;9.37;5.90;;;11.00;39.60;;;;;;5089450;28;20546;-75
2022/03/08 10:20:10;;;;;;;6.43;5.60;;;11.10;37.70;;;;;;5089406;28;20841;-76
2022/03/08 10:22:38;;;;;;;10.03;6.43;;;11.40;37.40;;;;;;5089644;28;20973;-75
2022/03/08 10:25:20;;;;;;;8.60;6.57;;;11.10;36.60;;;;;;5089859;28;20461;-75
2022/03/08 10:27:52;;;;;;;7.60;6.03;;;10.60;37.50;;;;;;5090102;28;21017;-74
2022/03/08 10:30:18;;;;;;;10.30;5.77;;;10.70;37.00;;;;;;5089406;28;20448;-75
2022/03/08 10:32:46;;;;;;;8.87;6.10;;;10.70;35.80;;;;;;5089401;28;20429;-74
2022/03/08 10:35:22;;;;;;;10.47;6.10;;;10.40;35.70;;;;;;5089396;28;20613;-74
2022/03/08 10:37:48;;;;;;;7.63;6.27;;;9.70;36.70;;;;;;5089487;28;20491;-75
2022/03/08 10:40:32;;;;;;;10.80;6.47;;;10.10;37.20;;;;;;5088812;28;20545;-76
2022/03/08 10:43:01;;;;;;;16.03;5.87;;;10.20;37.00;;;;;;5089923;28;20792;-73
2022/03/08 10:45:29;;;;;;;8.00;6.70;;;9.40;37.20;;;;;;5089753;28;20433;-75
2022/03/08 10:47:55;;;;;;;9.03;6.60;;;9.50;38.20;;;;;;5088456;28;20809;-75
2022/03/08 10:50:23;;;;;;;7.53;6.63;;;9.60;37.70;;;;;;5089837;28;20542;-75
2022/03/08 10:52:52;;;;;;;10.57;6.87;;;10.30;38.20;;;;;;5089198;28;20941;-74
2022/03/08 10:55:19;;;;;;;10.20;7.27;;;10.30;36.40;;;;;;5088813;28;20546;-74
2022/03/08 10:57:51;;;;;;;12.07;7.17;;;11.20;37.00;;;;;;5089079;28;20423;-74
2022/03/08 11:00:23;;;;;;;9.63;7.80;;;11.80;36.40;;;;;;5089517;28;20439;-74
2022/03/08 11:02:53;;;;;;;9.80;7.77;;;12.20;34.20;;;;;;5072042;28;20460;-76
2022/03/08 11:05:20;;;;;;;10.90;7.87;;;12.40;35.20;;;;;;5089107;28;20405;-75
2022/03/08 11:07:47;;;;;;;8.37;7.10;;;12.40;34.70;;;;;;5087984;28;20836;-75
2022/03/08 11:10:14;;;;;;;7.17;6.40;;;11.40;33.80;;;;;;5089232;28;20527;-74
2022/03/08 11:12:40;;;;;;;10.33;7.63;;;11.10;34.40;;;;;;5089200;28;20437;-75
2022/03/08 11:15:09;;;;;;;9.50;7.00;;;11.10;34.70;;;;;;5089242;28;20425;-76
2022/03/08 11:17:36;;;;;;;8.67;6.60;;;10.70;35.10;;;;;;5089230;28;20829;-76
2022/03/08 11:20:05;;;;;;;8.90;6.90;;;10.80;34.60;;;;;;5089229;28;20942;-76
2022/03/08 11:22:31;;;;;;;10.07;6.60;;;11.20;34.40;;;;;;5089241;28;20440;-74
2022/03/08 11:24:58;;;;;;;8.77;6.37;;;11.10;33.80;;;;;;5089445;28;20427;-76
2022/03/08 11:27:24;;;;;;;7.70;5.97;;;12.30;34.50;;;;;;5071151;28;21070;-76
2022/03/08 11:29:50;;;;;;;8.07;6.13;;;12.00;33.00;;;;;;5088862;28;20520;-76
2022/03/08 11:32:33;;;;;;;11.33;7.30;;;12.00;32.80;;;;;;5087170;28;20439;-75
2022/03/08 11:35:13;;;;;;;7.07;5.80;;;12.70;33.70;;;;;;5088948;28;20226;-76
2022/03/08 11:37:43;;;;;;;8.67;6.90;;;12.30;31.50;;;;;;5088988;28;20928;-76
2022/03/08 11:40:19;;;;;;;6.40;5.77;;;13.00;32.30;;;;;;5088649;28;20466;-75
2022/03/08 11:42:50;;;;;;;7.70;5.80;;;13.40;31.20;;;;;;5087700;28;20999;-77
2022/03/08 11:45:18;;;;;;;8.30;6.40;;;13.60;30.90;;;;;;5087659;28;20860;-76
2022/03/08 11:47:54;;;;;;;7.47;6.43;;;13.00;29.80;;;;;;5087992;28;20415;-76
2022/03/08 11:50:31;;;;;;;9.30;6.80;;;13.20;29.70;;;;;;5086513;28;20468;-75
2022/03/08 11:53:18;;;;;;;9.40;6.17;;;13.90;30.70;;;;;;5087926;28;20891;-74
2022/03/08 11:55:44;;;;;;;9.37;5.80;;;14.10;29.40;;;;;;5086475;28;20430;-75
2022/03/08 11:58:19;;;;;;;10.17;6.70;;;13.80;28.00;;;;;;5088134;28;20404;-74
2022/03/08 12:00:58;;;;;;;7.37;6.63;;;13.80;28.80;;;;;;5088416;28;20206;-77
2022/03/08 12:03:23;;;;;;;17.07;5.90;;;13.70;28.60;;;;;;5088414;28;20403;-76
2022/03/08 12:06:02;;;;;;;8.50;6.30;;;12.60;27.70;;;;;;5088199;28;20407;-76
2022/03/08 12:08:27;;;;;;;7.90;6.73;;;11.90;28.40;;;;;;5087759;28;20202;-76
2022/03/08 12:11:00;;;;;;;11.47;7.60;;;12.30;29.50;;;;;;5087437;28;20418;-76
2022/03/08 12:13:27;;;;;;;8.87;7.00;;;12.60;30.10;;;;;;5087578;28;20538;-75
2022/03/08 12:16:08;;;;;;;8.70;7.87;;;12.70;29.50;;;;;;5086062;28;20572;-75
2022/03/08 12:18:37;;;;;;;12.37;7.17;;;12.90;29.80;;;;;;5087960;28;20407;-75
2022/03/08 12:21:14;;;;;;;13.50;9.13;;;12.60;29.90;;;;;;5088018;28;20419;-77
2022/03/08 12:24:01;;;;;;;11.40;7.50;;;12.30;30.40;;;;;;5086183;28;20426;-76
2022/03/08 12:26:28;;;;;;;8.30;6.40;;;12.40;30.10;;;;;;5087992;28;20423;-76
2022/03/08 12:29:36;;;;;;;9.00;7.37;;;12.50;29.80;;;;;;5087612;28;20448;-76
2022/03/08 12:32:03;;;;;;;15.10;7.20;;;13.00;30.10;;;;;;5050494;28;20517;-76
2022/03/08 12:34:42;;;;;;;11.13;6.70;;;13.40;30.60;;;;;;5087640;28;20465;-75
2022/03/08 12:37:08;;;;;;;8.93;6.00;;;12.90;29.50;;;;;;5087965;28;20446;-76
2022/03/08 12:39:52;;;;;;;8.73;5.80;;;12.80;29.60;;;;;;5087620;28;20415;-76
2022/03/08 12:42:38;;;;;;;9.47;6.23;;;12.10;29.30;;;;;;5085856;28;20198;-76
2022/03/08 12:45:16;;;;;;;11.20;6.50;;;11.90;30.00;;;;;;5086744;28;20491;-74
2022/03/08 12:47:50;;;;;;;7.00;5.73;;;12.70;30.40;;;;;;5085856;28;20886;-75